Palisade, CO (81526)

11:48 PM MST on February 09, 2016 (GMT -0700)
Rapid Creek Road | | Change Station
CLOSE
Current Station
Personal Weather Station
Location: Palisade, CO
Elevation: 4980 ft
Nearby Weather Stations

Elev 4980 ft 39.13 °N, 108.32 °W | Updated 2 minutes ago

Clear
Clear
29.1 °F
Feels Like 20 °F
N
11.0
Wind Variable Wind from NE
Gusts 15.0 mph

Today
High -- | Low -- °F
--% Chance of Precip.
Yesterday
High -- | Low -- °F
Precip. -- in
Pressure 30.53 in
Visibility 10.0 miles
Clouds Clear
Windchill 20 °F
Dew Point 23 °F
Humidity 78%
Rainfall 0.00 in
Snow Depth Not available.
7:12 AM 5:43 PM
Waxing Crescent, 4% visible
METAR KGJT 100553Z AUTO 24003KT 10SM CLR M04/M06 A3046 RMK AO2 SLP339 T10391061 10056 21044 51005
Pressure 30.53 in
Visibility 10.0 miles
Clouds Clear
Windchill 20 °F
Dew Point 23 °F
Humidity 78%
Rainfall 0.00 in
Snow Depth Not available.
7:12 AM 5:43 PM
Waxing Crescent, 4% visible
METAR KGJT 100553Z AUTO 24003KT 10SM CLR M04/M06 A3046 RMK AO2 SLP339 T10391061 10056 21044 51005

10-Day Weather Forecast

Almanac

Astronomy

Feb. 09, 2016 Rise Set
Actual Time
Civil Twilight
Nautical Twilight
Astronomical Twilight
Moon
Length of Visible Light
Length of Day
Tomorrow will be .
, % of the Moon is Illuminated

Today's Extremes

State Highs State Lows

Community

WunderPhotos

Upload Photos

1,891,826 photos uploaded!

WunderBlog® & News

Nearby

Air Quality

  Air Quality AQ Index Pollutant
Not available.

Snow Depth

Station Depth Elevation

Earthquake Activity

City Distance Mag. Time & Date
Minimum magnitude displayed is 2.5.

Coastal Water Temperatures

Place Temperature

Stations

Nearby Weather Stations

Station Location Temp. Windchill Dew Point Humidity Wind Precip. Elev Updated Type
                   

Watches & Warnings

There are currently no watches in effect.